sensor_id;sensor_type;location;lat;lon;timestamp;temperature;humidity
22469;DHT22;11401;50.792;4.352;2023-11-21T00:02:27;16.30;69.10
22469;DHT22;11401;50.792;4.352;2023-11-21T00:04:54;16.20;69.00
22469;DHT22;11401;50.792;4.352;2023-11-21T00:07:22;16.20;69.10
22469;DHT22;11401;50.792;4.352;2023-11-21T00:09:49;16.20;69.00
22469;DHT22;11401;50.792;4.352;2023-11-21T00:12:16;16.20;69.10
22469;DHT22;11401;50.792;4.352;2023-11-21T00:14:43;16.20;69.10
22469;DHT22;11401;50.792;4.352;2023-11-21T00:17:10;16.20;69.20
22469;DHT22;11401;50.792;4.352;2023-11-21T00:19:37;16.20;69.10
22469;DHT22;11401;50.792;4.352;2023-11-21T00:22:04;16.20;69.10
22469;DHT22;11401;50.792;4.352;2023-11-21T00:24:33;16.10;69.20
22469;DHT22;11401;50.792;4.352;2023-11-21T00:27:00;16.20;69.20
22469;DHT22;11401;50.792;4.352;2023-11-21T00:29:27;16.20;69.20
22469;DHT22;11401;50.792;4.352;2023-11-21T00:31:54;16.20;69.20
22469;DHT22;11401;50.792;4.352;2023-11-21T00:34:21;16.20;69.10
22469;DHT22;11401;50.792;4.352;2023-11-21T00:36:48;16.20;69.20
22469;DHT22;11401;50.792;4.352;2023-11-21T00:39:15;16.20;69.30
22469;DHT22;11401;50.792;4.352;2023-11-21T00:41:42;16.10;69.20
22469;DHT22;11401;50.792;4.352;2023-11-21T00:44:11;16.10;69.20
22469;DHT22;11401;50.792;4.352;2023-11-21T00:46:38;16.10;69.10
22469;DHT22;11401;50.792;4.352;2023-11-21T00:49:05;16.10;69.10
22469;DHT22;11401;50.792;4.352;2023-11-21T00:51:32;16.10;69.10
22469;DHT22;11401;50.792;4.352;2023-11-21T00:54:00;16.20;69.10
22469;DHT22;11401;50.792;4.352;2023-11-21T00:56:27;16.10;69.10
22469;DHT22;11401;50.792;4.352;2023-11-21T00:58:54;16.10;69.10
22469;DHT22;11401;50.792;4.352;2023-11-21T01:01:21;16.10;69.00
22469;DHT22;11401;50.792;4.352;2023-11-21T01:03:50;16.10;68.90
22469;DHT22;11401;50.792;4.352;2023-11-21T01:06:18;16.00;68.90
22469;DHT22;11401;50.792;4.352;2023-11-21T01:08:47;16.00;69.70
22469;DHT22;11401;50.792;4.352;2023-11-21T01:11:14;16.00;69.70
22469;DHT22;11401;50.792;4.352;2023-11-21T01:13:42;16.00;68.80
22469;DHT22;11401;50.792;4.352;2023-11-21T01:16:09;15.90;68.70
22469;DHT22;11401;50.792;4.352;2023-11-21T01:18:37;15.90;68.60
22469;DHT22;11401;50.792;4.352;2023-11-21T01:21:05;15.90;68.80
22469;DHT22;11401;50.792;4.352;2023-11-21T01:23:32;15.90;68.90
22469;DHT22;11401;50.792;4.352;2023-11-21T01:26:00;15.90;69.10
22469;DHT22;11401;50.792;4.352;2023-11-21T01:28:27;15.80;69.00
22469;DHT22;11401;50.792;4.352;2023-11-21T01:30:54;15.80;69.20
22469;DHT22;11401;50.792;4.352;2023-11-21T01:33:23;15.80;69.30
22469;DHT22;11401;50.792;4.352;2023-11-21T01:35:52;15.70;69.10
22469;DHT22;11401;50.792;4.352;2023-11-21T01:38:22;15.70;69.10
22469;DHT22;11401;50.792;4.352;2023-11-21T01:40:49;15.70;69.10
22469;DHT22;11401;50.792;4.352;2023-11-21T01:43:17;15.70;69.20
22469;DHT22;11401;50.792;4.352;2023-11-21T01:45:44;15.70;69.30
22469;DHT22;11401;50.792;4.352;2023-11-21T01:48:14;15.70;69.30
22469;DHT22;11401;50.792;4.352;2023-11-21T01:50:43;15.70;69.40
22469;DHT22;11401;50.792;4.352;2023-11-21T01:53:12;15.70;69.40
22469;DHT22;11401;50.792;4.352;2023-11-21T01:55:41;15.70;70.30
22469;DHT22;11401;50.792;4.352;2023-11-21T01:58:09;15.70;69.40
22469;DHT22;11401;50.792;4.352;2023-11-21T02:00:37;15.70;69.40
22469;DHT22;11401;50.792;4.352;2023-11-21T02:03:05;15.70;69.40
22469;DHT22;11401;50.792;4.352;2023-11-21T02:05:34;15.70;69.60
22469;DHT22;11401;50.792;4.352;2023-11-21T02:08:01;15.70;69.60
22469;DHT22;11401;50.792;4.352;2023-11-21T02:10:30;15.70;69.60
22469;DHT22;11401;50.792;4.352;2023-11-21T02:12:58;15.70;69.40
22469;DHT22;11401;50.792;4.352;2023-11-21T02:15:26;15.80;69.40
22469;DHT22;11401;50.792;4.352;2023-11-21T02:17:55;15.80;69.50
22469;DHT22;11401;50.792;4.352;2023-11-21T02:20:25;15.80;69.50
22469;DHT22;11401;50.792;4.352;2023-11-21T02:22:54;15.70;69.50
22469;DHT22;11401;50.792;4.352;2023-11-21T02:25:32;15.80;69.80
22469;DHT22;11401;50.792;4.352;2023-11-21T02:28:03;15.80;69.70
22469;DHT22;11401;50.792;4.352;2023-11-21T02:30:31;15.80;69.70
22469;DHT22;11401;50.792;4.352;2023-11-21T02:33:01;15.80;69.60
22469;DHT22;11401;50.792;4.352;2023-11-21T02:35:30;15.80;69.60
22469;DHT22;11401;50.792;4.352;2023-11-21T02:37:58;15.80;69.50
22469;DHT22;11401;50.792;4.352;2023-11-21T02:40:25;15.80;69.60
22469;DHT22;11401;50.792;4.352;2023-11-21T02:42:54;15.80;69.50
22469;DHT22;11401;50.792;4.352;2023-11-21T02:45:21;15.80;69.60
22469;DHT22;11401;50.792;4.352;2023-11-21T02:47:50;15.80;69.50
22469;DHT22;11401;50.792;4.352;2023-11-21T02:50:17;15.80;69.50
22469;DHT22;11401;50.792;4.352;2023-11-21T02:52:46;15.80;69.60
22469;DHT22;11401;50.792;4.352;2023-11-21T02:55:13;15.80;69.70
22469;DHT22;11401;50.792;4.352;2023-11-21T02:57:41;15.90;69.70
22469;DHT22;11401;50.792;4.352;2023-11-21T03:00:08;15.90;69.70
22469;DHT22;11401;50.792;4.352;2023-11-21T03:02:36;15.80;69.50
22469;DHT22;11401;50.792;4.352;2023-11-21T03:05:07;15.90;69.70
22469;DHT22;11401;50.792;4.352;2023-11-21T03:07:39;15.80;69.50
22469;DHT22;11401;50.792;4.352;2023-11-21T03:10:08;15.80;69.40
22469;DHT22;11401;50.792;4.352;2023-11-21T03:12:40;15.80;69.60
22469;DHT22;11401;50.792;4.352;2023-11-21T03:15:08;15.90;69.70
22469;DHT22;11401;50.792;4.352;2023-11-21T03:17:36;15.80;69.70
22469;DHT22;11401;50.792;4.352;2023-11-21T03:20:04;15.80;69.60
22469;DHT22;11401;50.792;4.352;2023-11-21T03:22:32;15.80;69.70
22469;DHT22;11401;50.792;4.352;2023-11-21T03:25:00;15.80;69.70
22469;DHT22;11401;50.792;4.352;2023-11-21T03:27:27;15.90;69.70
22469;DHT22;11401;50.792;4.352;2023-11-21T03:29:54;15.80;69.60
22469;DHT22;11401;50.792;4.352;2023-11-21T03:32:21;15.80;69.60
22469;DHT22;11401;50.792;4.352;2023-11-21T03:34:58;15.80;69.80
22469;DHT22;11401;50.792;4.352;2023-11-21T03:37:26;15.80;69.50
22469;DHT22;11401;50.792;4.352;2023-11-21T03:39:56;15.80;69.80
22469;DHT22;11401;50.792;4.352;2023-11-21T03:42:24;15.70;69.70
22469;DHT22;11401;50.792;4.352;2023-11-21T03:44:54;15.70;69.70
22469;DHT22;11401;50.792;4.352;2023-11-21T03:47:21;15.70;69.90
22469;DHT22;11401;50.792;4.352;2023-11-21T03:49:48;15.70;69.80
22469;DHT22;11401;50.792;4.352;2023-11-21T03:52:16;15.70;70.00
22469;DHT22;11401;50.792;4.352;2023-11-21T03:54:43;15.70;70.00
22469;DHT22;11401;50.792;4.352;2023-11-21T03:57:11;15.80;70.00
22469;DHT22;11401;50.792;4.352;2023-11-21T03:59:42;15.80;69.90
22469;DHT22;11401;50.792;4.352;2023-11-21T04:02:09;15.80;69.70
22469;DHT22;11401;50.792;4.352;2023-11-21T04:04:36;15.80;69.80
22469;DHT22;11401;50.792;4.352;2023-11-21T04:07:04;15.70;69.80
22469;DHT22;11401;50.792;4.352;2023-11-21T04:09:31;15.70;69.90
22469;DHT22;11401;50.792;4.352;2023-11-21T04:11:58;15.70;69.90
22469;DHT22;11401;50.792;4.352;2023-11-21T04:14:26;15.80;69.90
22469;DHT22;11401;50.792;4.352;2023-11-21T04:16:53;15.80;70.00
22469;DHT22;11401;50.792;4.352;2023-11-21T04:19:20;15.80;70.00
22469;DHT22;11401;50.792;4.352;2023-11-21T04:21:48;15.80;69.90
22469;DHT22;11401;50.792;4.352;2023-11-21T04:24:15;15.80;70.00
22469;DHT22;11401;50.792;4.352;2023-11-21T04:26:43;15.80;70.00
22469;DHT22;11401;50.792;4.352;2023-11-21T04:29:11;15.80;70.00
22469;DHT22;11401;50.792;4.352;2023-11-21T04:31:38;15.80;70.00
22469;DHT22;11401;50.792;4.352;2023-11-21T04:34:05;15.80;69.90
22469;DHT22;11401;50.792;4.352;2023-11-21T04:36:32;15.80;69.90
22469;DHT22;11401;50.792;4.352;2023-11-21T04:38:59;15.80;70.90
22469;DHT22;11401;50.792;4.352;2023-11-21T04:41:26;15.80;70.20
22469;DHT22;11401;50.792;4.352;2023-11-21T04:43:53;15.80;70.20
22469;DHT22;11401;50.792;4.352;2023-11-21T04:46:21;15.90;70.20
22469;DHT22;11401;50.792;4.352;2023-11-21T04:48:48;15.90;70.20
22469;DHT22;11401;50.792;4.352;2023-11-21T04:51:16;15.90;70.10
22469;DHT22;11401;50.792;4.352;2023-11-21T04:53:43;15.90;70.10
22469;DHT22;11401;50.792;4.352;2023-11-21T04:56:10;15.90;70.10
22469;DHT22;11401;50.792;4.352;2023-11-21T04:58:38;15.90;70.20
22469;DHT22;11401;50.792;4.352;2023-11-21T05:01:07;15.90;70.20
22469;DHT22;11401;50.792;4.352;2023-11-21T05:03:35;15.90;70.20
22469;DHT22;11401;50.792;4.352;2023-11-21T05:06:02;15.90;70.00
22469;DHT22;11401;50.792;4.352;2023-11-21T05:08:32;15.90;70.10
22469;DHT22;11401;50.792;4.352;2023-11-21T05:10:59;15.90;69.90
22469;DHT22;11401;50.792;4.352;2023-11-21T05:13:26;15.90;69.90
22469;DHT22;11401;50.792;4.352;2023-11-21T05:15:55;15.90;69.90
22469;DHT22;11401;50.792;4.352;2023-11-21T05:18:25;15.90;69.90
22469;DHT22;11401;50.792;4.352;2023-11-21T05:20:57;16.00;69.90
22469;DHT22;11401;50.792;4.352;2023-11-21T05:23:24;16.00;70.00
22469;DHT22;11401;50.792;4.352;2023-11-21T05:25:51;16.00;69.90
22469;DHT22;11401;50.792;4.352;2023-11-21T05:28:19;16.00;70.00
22469;DHT22;11401;50.792;4.352;2023-11-21T05:30:46;16.00;69.50
22469;DHT22;11401;50.792;4.352;2023-11-21T05:33:13;16.10;69.60
22469;DHT22;11401;50.792;4.352;2023-11-21T05:35:40;16.10;69.50
22469;DHT22;11401;50.792;4.352;2023-11-21T05:38:07;16.10;69.60
22469;DHT22;11401;50.792;4.352;2023-11-21T05:40:34;16.10;69.30
22469;DHT22;11401;50.792;4.352;2023-11-21T05:43:01;16.10;69.30
22469;DHT22;11401;50.792;4.352;2023-11-21T05:45:28;16.10;69.40
22469;DHT22;11401;50.792;4.352;2023-11-21T05:47:58;16.20;69.60
22469;DHT22;11401;50.792;4.352;2023-11-21T05:50:25;16.20;69.40
22469;DHT22;11401;50.792;4.352;2023-11-21T05:52:52;16.20;69.30
22469;DHT22;11401;50.792;4.352;2023-11-21T05:55:22;16.20;70.10
22469;DHT22;11401;50.792;4.352;2023-11-21T05:57:52;16.20;69.20
22469;DHT22;11401;50.792;4.352;2023-11-21T06:00:20;16.20;69.20
22469;DHT22;11401;50.792;4.352;2023-11-21T06:02:53;16.20;69.20
22469;DHT22;11401;50.792;4.352;2023-11-21T06:05:23;16.20;68.70
22469;DHT22;11401;50.792;4.352;2023-11-21T06:07:52;16.30;69.40
22469;DHT22;11401;50.792;4.352;2023-11-21T06:10:21;16.40;68.60
22469;DHT22;11401;50.792;4.352;2023-11-21T06:12:48;16.40;68.30
22469;DHT22;11401;50.792;4.352;2023-11-21T06:15:15;16.40;68.70
22469;DHT22;11401;50.792;4.352;2023-11-21T06:17:43;16.40;68.80
22469;DHT22;11401;50.792;4.352;2023-11-21T06:20:12;16.30;68.70
22469;DHT22;11401;50.792;4.352;2023-11-21T06:22:43;16.20;67.80
22469;DHT22;11401;50.792;4.352;2023-11-21T06:25:11;16.10;69.80
22469;DHT22;11401;50.792;4.352;2023-11-21T06:27:45;16.20;69.80
22469;DHT22;11401;50.792;4.352;2023-11-21T06:30:13;16.20;69.80
22469;DHT22;11401;50.792;4.352;2023-11-21T06:32:42;16.30;69.40
22469;DHT22;11401;50.792;4.352;2023-11-21T06:35:13;16.30;69.40
22469;DHT22;11401;50.792;4.352;2023-11-21T06:37:43;16.30;69.30
22469;DHT22;11401;50.792;4.352;2023-11-21T06:40:16;16.40;69.10
22469;DHT22;11401;50.792;4.352;2023-11-21T06:42:45;16.30;69.00
22469;DHT22;11401;50.792;4.352;2023-11-21T06:45:14;16.30;69.10
22469;DHT22;11401;50.792;4.352;2023-11-21T06:47:42;16.30;68.30
22469;DHT22;11401;50.792;4.352;2023-11-21T06:50:10;16.20;68.00
22469;DHT22;11401;50.792;4.352;2023-11-21T06:52:37;16.00;69.10
22469;DHT22;11401;50.792;4.352;2023-11-21T06:55:06;16.10;70.00
22469;DHT22;11401;50.792;4.352;2023-11-21T06:57:36;16.30;71.10
22469;DHT22;11401;50.792;4.352;2023-11-21T07:00:03;16.30;69.00
22469;DHT22;11401;50.792;4.352;2023-11-21T07:02:31;16.50;69.20
22469;DHT22;11401;50.792;4.352;2023-11-21T07:04:58;16.50;68.90
22469;DHT22;11401;50.792;4.352;2023-11-21T07:07:27;16.50;68.70
22469;DHT22;11401;50.792;4.352;2023-11-21T07:09:54;16.60;68.90
22469;DHT22;11401;50.792;4.352;2023-11-21T07:12:21;16.60;68.50
22469;DHT22;11401;50.792;4.352;2023-11-21T07:14:50;16.60;68.70
22469;DHT22;11401;50.792;4.352;2023-11-21T07:17:17;16.60;68.70
22469;DHT22;11401;50.792;4.352;2023-11-21T07:19:45;17.00;70.00
22469;DHT22;11401;50.792;4.352;2023-11-21T07:22:12;17.40;69.60
22469;DHT22;11401;50.792;4.352;2023-11-21T07:24:41;17.70;68.90
22469;DHT22;11401;50.792;4.352;2023-11-21T07:27:08;17.90;68.10
22469;DHT22;11401;50.792;4.352;2023-11-21T07:29:35;18.10;67.40
22469;DHT22;11401;50.792;4.352;2023-11-21T07:32:02;18.10;65.10
22469;DHT22;11401;50.792;4.352;2023-11-21T07:34:29;17.80;63.60
22469;DHT22;11401;50.792;4.352;2023-11-21T07:36:56;17.60;64.00
22469;DHT22;11401;50.792;4.352;2023-11-21T07:39:23;17.40;64.30
22469;DHT22;11401;50.792;4.352;2023-11-21T16:39:26;16.80;68.50
22469;DHT22;11401;50.792;4.352;2023-11-21T16:41:54;16.80;69.00
22469;DHT22;11401;50.792;4.352;2023-11-21T16:44:21;16.70;69.30
22469;DHT22;11401;50.792;4.352;2023-11-21T16:46:50;16.70;69.20
22469;DHT22;11401;50.792;4.352;2023-11-21T16:49:20;16.60;68.10
22469;DHT22;11401;50.792;4.352;2023-11-21T16:51:48;16.60;69.50
22469;DHT22;11401;50.792;4.352;2023-11-21T16:54:16;16.60;69.20
22469;DHT22;11401;50.792;4.352;2023-11-21T16:56:44;16.60;69.40
22469;DHT22;11401;50.792;4.352;2023-11-21T16:59:11;16.60;69.00
22469;DHT22;11401;50.792;4.352;2023-11-21T17:01:38;16.60;69.40
22469;DHT22;11401;50.792;4.352;2023-11-21T17:04:06;16.70;69.30
22469;DHT22;11401;50.792;4.352;2023-11-21T17:06:35;16.70;69.00
22469;DHT22;11401;50.792;4.352;2023-11-21T17:09:03;16.60;68.40
22469;DHT22;11401;50.792;4.352;2023-11-21T17:11:31;16.60;68.60
22469;DHT22;11401;50.792;4.352;2023-11-21T17:14:00;16.60;68.40
22469;DHT22;11401;50.792;4.352;2023-11-21T17:16:27;16.70;69.40
22469;DHT22;11401;50.792;4.352;2023-11-21T17:18:54;16.70;68.20
22469;DHT22;11401;50.792;4.352;2023-11-21T17:21:21;16.60;67.40
22469;DHT22;11401;50.792;4.352;2023-11-21T17:24:01;16.60;68.10
22469;DHT22;11401;50.792;4.352;2023-11-21T17:26:28;16.50;68.60
22469;DHT22;11401;50.792;4.352;2023-11-21T17:28:55;16.50;68.20
22469;DHT22;11401;50.792;4.352;2023-11-21T17:31:24;16.50;67.80
22469;DHT22;11401;50.792;4.352;2023-11-21T17:33:51;16.50;68.30
22469;DHT22;11401;50.792;4.352;2023-11-21T17:36:21;16.50;68.20
22469;DHT22;11401;50.792;4.352;2023-11-21T17:38:48;16.60;68.80
22469;DHT22;11401;50.792;4.352;2023-11-21T17:41:20;16.60;67.90
22469;DHT22;11401;50.792;4.352;2023-11-21T17:43:48;16.60;68.00
22469;DHT22;11401;50.792;4.352;2023-11-21T17:46:19;16.60;67.90
22469;DHT22;11401;50.792;4.352;2023-11-21T17:48:48;16.50;67.60
22469;DHT22;11401;50.792;4.352;2023-11-21T17:51:16;16.50;68.30
22469;DHT22;11401;50.792;4.352;2023-11-21T17:53:43;16.50;68.20
22469;DHT22;11401;50.792;4.352;2023-11-21T17:56:14;16.50;68.10
22469;DHT22;11401;50.792;4.352;2023-11-21T17:58:43;16.50;68.50
22469;DHT22;11401;50.792;4.352;2023-11-21T18:01:10;16.50;68.70
22469;DHT22;11401;50.792;4.352;2023-11-21T18:03:37;16.60;68.90
22469;DHT22;11401;50.792;4.352;2023-11-21T18:06:05;16.60;68.70
22469;DHT22;11401;50.792;4.352;2023-11-21T18:08:32;16.60;68.40
22469;DHT22;11401;50.792;4.352;2023-11-21T18:10:59;16.60;68.60
22469;DHT22;11401;50.792;4.352;2023-11-21T18:13:27;16.60;67.50
22469;DHT22;11401;50.792;4.352;2023-11-21T18:15:54;16.50;67.30
22469;DHT22;11401;50.792;4.352;2023-11-21T18:18:21;16.10;68.50
22469;DHT22;11401;50.792;4.352;2023-11-21T18:20:48;15.80;69.60
22469;DHT22;11401;50.792;4.352;2023-11-21T18:23:16;15.70;70.60
22469;DHT22;11401;50.792;4.352;2023-11-21T18:25:43;15.50;71.20
22469;DHT22;11401;50.792;4.352;2023-11-21T18:28:11;15.30;71.90
22469;DHT22;11401;50.792;4.352;2023-11-21T18:30:39;15.20;72.40
22469;DHT22;11401;50.792;4.352;2023-11-21T18:33:07;15.20;73.10
22469;DHT22;11401;50.792;4.352;2023-11-21T18:35:34;15.20;73.00
22469;DHT22;11401;50.792;4.352;2023-11-21T18:38:01;15.20;73.00
22469;DHT22;11401;50.792;4.352;2023-11-21T18:40:29;15.20;73.00
22469;DHT22;11401;50.792;4.352;2023-11-21T18:42:56;15.10;73.20
22469;DHT22;11401;50.792;4.352;2023-11-21T18:45:23;15.20;73.30
22469;DHT22;11401;50.792;4.352;2023-11-21T18:47:51;15.30;72.80
22469;DHT22;11401;50.792;4.352;2023-11-21T18:50:18;15.30;72.40
22469;DHT22;11401;50.792;4.352;2023-11-21T18:52:48;15.40;72.10
22469;DHT22;11401;50.792;4.352;2023-11-21T18:55:16;15.40;71.80
22469;DHT22;11401;50.792;4.352;2023-11-21T18:57:43;15.30;72.00
22469;DHT22;11401;50.792;4.352;2023-11-21T19:00:11;15.20;72.40
22469;DHT22;11401;50.792;4.352;2023-11-21T19:02:40;15.20;73.00
22469;DHT22;11401;50.792;4.352;2023-11-21T19:05:08;15.10;73.00
22469;DHT22;11401;50.792;4.352;2023-11-21T19:07:36;15.20;72.70
22469;DHT22;11401;50.792;4.352;2023-11-21T19:10:04;15.40;72.20
22469;DHT22;11401;50.792;4.352;2023-11-21T19:12:32;15.40;71.90
22469;DHT22;11401;50.792;4.352;2023-11-21T19:15:02;15.30;71.80
22469;DHT22;11401;50.792;4.352;2023-11-21T19:17:30;15.30;72.00
22469;DHT22;11401;50.792;4.352;2023-11-21T19:19:59;15.40;73.20
22469;DHT22;11401;50.792;4.352;2023-11-21T19:22:26;15.50;72.80
22469;DHT22;11401;50.792;4.352;2023-11-21T19:24:54;15.60;73.20
22469;DHT22;11401;50.792;4.352;2023-11-21T19:27:21;15.80;71.90
22469;DHT22;11401;50.792;4.352;2023-11-21T19:29:48;15.80;71.00
22469;DHT22;11401;50.792;4.352;2023-11-21T19:32:15;15.90;70.40
22469;DHT22;11401;50.792;4.352;2023-11-21T19:34:42;15.90;70.80
22469;DHT22;11401;50.792;4.352;2023-11-21T19:37:10;16.00;70.30
22469;DHT22;11401;50.792;4.352;2023-11-21T19:39:37;16.10;70.30
22469;DHT22;11401;50.792;4.352;2023-11-21T19:42:05;16.10;69.30
22469;DHT22;11401;50.792;4.352;2023-11-21T19:44:32;16.10;69.30
22469;DHT22;11401;50.792;4.352;2023-11-21T19:47:00;16.00;69.00
22469;DHT22;11401;50.792;4.352;2023-11-21T19:49:27;16.20;71.00
22469;DHT22;11401;50.792;4.352;2023-11-21T19:51:54;16.50;69.20
22469;DHT22;11401;50.792;4.352;2023-11-21T19:54:21;16.60;67.70
22469;DHT22;11401;50.792;4.352;2023-11-21T19:56:49;16.60;68.40
22469;DHT22;11401;50.792;4.352;2023-11-21T19:59:16;16.60;66.60
22469;DHT22;11401;50.792;4.352;2023-11-21T20:01:45;16.40;66.20
22469;DHT22;11401;50.792;4.352;2023-11-21T20:04:12;16.30;67.00
22469;DHT22;11401;50.792;4.352;2023-11-21T20:06:42;16.30;66.30
22469;DHT22;11401;50.792;4.352;2023-11-21T20:09:20;16.20;67.40
22469;DHT22;11401;50.792;4.352;2023-11-21T20:11:47;16.10;67.60
22469;DHT22;11401;50.792;4.352;2023-11-21T20:14:17;16.10;67.60
22469;DHT22;11401;50.792;4.352;2023-11-21T20:16:44;16.10;68.00
22469;DHT22;11401;50.792;4.352;2023-11-21T20:19:14;16.00;67.70
22469;DHT22;11401;50.792;4.352;2023-11-21T20:21:41;15.90;67.10
22469;DHT22;11401;50.792;4.352;2023-11-21T20:24:09;15.80;67.80
22469;DHT22;11401;50.792;4.352;2023-11-21T20:26:40;15.80;68.10
22469;DHT22;11401;50.792;4.352;2023-11-21T20:29:09;15.80;68.50
22469;DHT22;11401;50.792;4.352;2023-11-21T20:31:36;15.80;68.40
22469;DHT22;11401;50.792;4.352;2023-11-21T20:34:03;15.80;68.10
22469;DHT22;11401;50.792;4.352;2023-11-21T20:36:33;15.80;67.30
22469;DHT22;11401;50.792;4.352;2023-11-21T20:39:00;15.80;69.20
22469;DHT22;11401;50.792;4.352;2023-11-21T20:41:27;16.10;69.90
22469;DHT22;11401;50.792;4.352;2023-11-21T20:43:55;16.20;68.40
22469;DHT22;11401;50.792;4.352;2023-11-21T20:46:23;16.30;67.60
22469;DHT22;11401;50.792;4.352;2023-11-21T20:48:50;16.40;68.50
22469;DHT22;11401;50.792;4.352;2023-11-21T20:51:21;16.60;67.70
22469;DHT22;11401;50.792;4.352;2023-11-21T20:53:49;16.50;64.70
22469;DHT22;11401;50.792;4.352;2023-11-21T20:56:16;16.40;65.00
22469;DHT22;11401;50.792;4.352;2023-11-21T20:58:45;16.20;65.50
22469;DHT22;11401;50.792;4.352;2023-11-21T21:01:13;16.00;65.70
22469;DHT22;11401;50.792;4.352;2023-11-21T21:03:41;16.00;66.60
22469;DHT22;11401;50.792;4.352;2023-11-21T21:06:08;15.90;66.90
22469;DHT22;11401;50.792;4.352;2023-11-21T21:08:35;15.80;67.20
22469;DHT22;11401;50.792;4.352;2023-11-21T21:11:02;15.70;66.80
22469;DHT22;11401;50.792;4.352;2023-11-21T21:13:29;15.60;66.30
22469;DHT22;11401;50.792;4.352;2023-11-21T21:15:56;15.50;66.90
22469;DHT22;11401;50.792;4.352;2023-11-21T21:18:23;15.50;67.60
22469;DHT22;11401;50.792;4.352;2023-11-21T21:20:54;15.40;67.60
22469;DHT22;11401;50.792;4.352;2023-11-21T21:23:21;15.30;66.80
22469;DHT22;11401;50.792;4.352;2023-11-21T21:25:49;15.20;67.50
22469;DHT22;11401;50.792;4.352;2023-11-21T21:28:18;15.10;66.90
22469;DHT22;11401;50.792;4.352;2023-11-21T21:30:45;15.00;67.90
22469;DHT22;11401;50.792;4.352;2023-11-21T21:33:12;15.00;67.80
22469;DHT22;11401;50.792;4.352;2023-11-21T21:35:40;15.00;67.80
22469;DHT22;11401;50.792;4.352;2023-11-21T21:38:07;14.90;68.00
22469;DHT22;11401;50.792;4.352;2023-11-21T21:40:34;14.90;68.20
22469;DHT22;11401;50.792;4.352;2023-11-21T21:43:04;14.80;68.50
22469;DHT22;11401;50.792;4.352;2023-11-21T21:45:32;14.80;68.40
22469;DHT22;11401;50.792;4.352;2023-11-21T21:47:59;14.70;67.90
22469;DHT22;11401;50.792;4.352;2023-11-21T21:50:26;14.70;68.20
22469;DHT22;11401;50.792;4.352;2023-11-21T21:52:56;14.70;68.00
22469;DHT22;11401;50.792;4.352;2023-11-21T21:55:26;14.70;67.80
22469;DHT22;11401;50.792;4.352;2023-11-21T21:57:56;14.60;68.60
22469;DHT22;11401;50.792;4.352;2023-11-21T22:00:23;14.60;68.70
22469;DHT22;11401;50.792;4.352;2023-11-21T22:02:51;14.70;68.50
22469;DHT22;11401;50.792;4.352;2023-11-21T22:05:18;14.60;68.80
22469;DHT22;11401;50.792;4.352;2023-11-21T22:07:45;14.60;69.30
22469;DHT22;11401;50.792;4.352;2023-11-21T22:10:12;14.60;69.20
22469;DHT22;11401;50.792;4.352;2023-11-21T22:12:40;14.60;68.10
22469;DHT22;11401;50.792;4.352;2023-11-21T22:15:08;14.50;68.40
22469;DHT22;11401;50.792;4.352;2023-11-21T22:17:36;14.50;69.50
22469;DHT22;11401;50.792;4.352;2023-11-21T22:20:05;14.40;69.50
22469;DHT22;11401;50.792;4.352;2023-11-21T22:22:34;14.40;69.30
22469;DHT22;11401;50.792;4.352;2023-11-21T22:25:01;14.40;69.80
22469;DHT22;11401;50.792;4.352;2023-11-21T22:27:30;14.30;69.50
22469;DHT22;11401;50.792;4.352;2023-11-21T22:29:57;14.30;69.20
22469;DHT22;11401;50.792;4.352;2023-11-21T22:32:24;14.30;69.70
22469;DHT22;11401;50.792;4.352;2023-11-21T22:34:51;14.30;69.80
22469;DHT22;11401;50.792;4.352;2023-11-21T22:37:19;14.30;70.30
22469;DHT22;11401;50.792;4.352;2023-11-21T22:39:46;14.30;69.50
22469;DHT22;11401;50.792;4.352;2023-11-21T22:42:13;14.30;69.90
22469;DHT22;11401;50.792;4.352;2023-11-21T22:44:43;14.20;69.30
22469;DHT22;11401;50.792;4.352;2023-11-21T22:47:10;14.20;69.30
22469;DHT22;11401;50.792;4.352;2023-11-21T22:49:38;14.10;69.60
22469;DHT22;11401;50.792;4.352;2023-11-21T22:52:05;14.10;69.40
22469;DHT22;11401;50.792;4.352;2023-11-21T22:54:32;14.00;70.20
22469;DHT22;11401;50.792;4.352;2023-11-21T22:56:59;14.00;70.40
22469;DHT22;11401;50.792;4.352;2023-11-21T22:59:26;13.90;70.40
22469;DHT22;11401;50.792;4.352;2023-11-21T23:01:53;13.90;70.50
22469;DHT22;11401;50.792;4.352;2023-11-21T23:04:21;13.90;70.60
22469;DHT22;11401;50.792;4.352;2023-11-21T23:06:48;13.90;70.20
22469;DHT22;11401;50.792;4.352;2023-11-21T23:09:16;13.80;69.70
22469;DHT22;11401;50.792;4.352;2023-11-21T23:11:43;13.70;70.10
22469;DHT22;11401;50.792;4.352;2023-11-21T23:14:11;13.70;70.80
22469;DHT22;11401;50.792;4.352;2023-11-21T23:16:38;13.70;71.30
22469;DHT22;11401;50.792;4.352;2023-11-21T23:19:06;13.70;71.10
22469;DHT22;11401;50.792;4.352;2023-11-21T23:21:33;13.70;71.40
22469;DHT22;11401;50.792;4.352;2023-11-21T23:24:02;13.60;71.00
22469;DHT22;11401;50.792;4.352;2023-11-21T23:26:39;13.60;71.00
22469;DHT22;11401;50.792;4.352;2023-11-21T23:29:09;13.60;71.70
22469;DHT22;11401;50.792;4.352;2023-11-21T23:31:36;13.50;71.20
22469;DHT22;11401;50.792;4.352;2023-11-21T23:34:03;13.50;72.10
22469;DHT22;11401;50.792;4.352;2023-11-21T23:36:31;13.50;71.70
22469;DHT22;11401;50.792;4.352;2023-11-21T23:38:58;13.50;71.20
22469;DHT22;11401;50.792;4.352;2023-11-21T23:41:25;13.50;72.20
22469;DHT22;11401;50.792;4.352;2023-11-21T23:43:52;13.50;70.80
22469;DHT22;11401;50.792;4.352;2023-11-21T23:46:19;13.40;71.80
22469;DHT22;11401;50.792;4.352;2023-11-21T23:48:46;13.40;72.30
22469;DHT22;11401;50.792;4.352;2023-11-21T23:51:13;13.40;72.10
22469;DHT22;11401;50.792;4.352;2023-11-21T23:53:40;13.40;72.40
22469;DHT22;11401;50.792;4.352;2023-11-21T23:56:08;13.40;72.30
22469;DHT22;11401;50.792;4.352;2023-11-21T23:58:36;13.40;71.10
